sensor_id;sensor_type;location;lat;lon;timestamp;pressure;altitude;pressure_sealevel;temperature;humidity
22930;BME280;11630;42.660;23.292;2024-01-15T00:00:38;67464.56;;;-0.78;100.00
22930;BME280;11630;42.660;23.292;2024-01-15T00:03:09;67480.73;;;-0.61;100.00
22930;BME280;11630;42.660;23.292;2024-01-15T00:05:39;67446.84;;;-0.92;100.00
22930;BME280;11630;42.660;23.292;2024-01-15T00:08:10;67445.73;;;-0.96;100.00
22930;BME280;11630;42.660;23.292;2024-01-15T00:10:49;67434.51;;;-0.99;100.00
22930;BME280;11630;42.660;23.292;2024-01-15T00:13:20;67449.02;;;-0.88;100.00
22930;BME280;11630;42.660;23.292;2024-01-15T00:15:53;67419.40;;;-1.18;100.00
22930;BME280;11630;42.660;23.292;2024-01-15T00:18:37;67445.23;;;-0.94;100.00
22930;BME280;11630;42.660;23.292;2024-01-15T00:21:04;67402.16;;;-1.36;100.00
22930;BME280;11630;42.660;23.292;2024-01-15T00:23:35;67420.48;;;-1.17;100.00
22930;BME280;11630;42.660;23.292;2024-01-15T00:26:15;67429.64;;;-1.06;100.00
22930;BME280;11630;42.660;23.292;2024-01-15T00:28:37;67436.62;;;-1.02;100.00
22930;BME280;11630;42.660;23.292;2024-01-15T00:31:15;67454.92;;;-0.85;100.00
22930;BME280;11630;42.660;23.292;2024-01-15T00:33:55;67448.97;;;-0.93;100.00
22930;BME280;11630;42.660;23.292;2024-01-15T00:36:21;67437.13;;;-1.04;100.00
22930;BME280;11630;42.660;23.292;2024-01-15T00:38:55;67420.23;;;-1.16;100.00
22930;BME280;11630;42.660;23.292;2024-01-15T00:41:29;67380.42;;;-1.52;100.00
22930;BME280;11630;42.660;23.292;2024-01-15T00:44:06;67415.61;;;-1.24;100.00
22930;BME280;11630;42.660;23.292;2024-01-15T00:46:47;67452.98;;;-0.90;100.00
22930;BME280;11630;42.660;23.292;2024-01-15T00:49:17;67389.31;;;-1.43;100.00
22930;BME280;11630;42.660;23.292;2024-01-15T00:51:54;67417.79;;;-1.19;100.00
22930;BME280;11630;42.660;23.292;2024-01-15T00:54:26;67411.55;;;-1.29;100.00
22930;BME280;11630;42.660;23.292;2024-01-15T00:57:05;67355.94;;;-1.76;100.00
22930;BME280;11630;42.660;23.292;2024-01-15T00:59:30;67371.27;;;-1.61;100.00
22930;BME280;11630;42.660;23.292;2024-01-15T01:02:07;67381.75;;;-1.52;100.00
22930;BME280;11630;42.660;23.292;2024-01-15T01:04:37;67384.41;;;-1.52;100.00
22930;BME280;11630;42.660;23.292;2024-01-15T01:07:12;67394.66;;;-1.41;100.00
22930;BME280;11630;42.660;23.292;2024-01-15T01:12:14;67430.97;;;-1.06;100.00
22930;BME280;11630;42.660;23.292;2024-01-15T01:14:45;67407.55;;;-1.29;100.00
22930;BME280;11630;42.660;23.292;2024-01-15T01:17:16;67398.14;;;-1.39;100.00
22930;BME280;11630;42.660;23.292;2024-01-15T01:19:47;67391.42;;;-1.44;100.00
22930;BME280;11630;42.660;23.292;2024-01-15T01:22:18;67390.09;;;-1.44;100.00
22930;BME280;11630;42.660;23.292;2024-01-15T01:24:51;67374.78;;;-1.56;100.00
22930;BME280;11630;42.660;23.292;2024-01-15T01:27:21;67376.41;;;-1.55;100.00
22930;BME280;11630;42.660;23.292;2024-01-15T01:29:57;67398.97;;;-1.37;100.00
22930;BME280;11630;42.660;23.292;2024-01-15T01:32:29;67385.49;;;-1.52;100.00
22930;BME280;11630;42.660;23.292;2024-01-15T01:35:15;67393.30;;;-1.43;100.00
22930;BME280;11630;42.660;23.292;2024-01-15T01:37:50;67393.58;;;-1.42;100.00
22930;BME280;11630;42.660;23.292;2024-01-15T01:40:25;67421.55;;;-1.16;100.00
22930;BME280;11630;42.660;23.292;2024-01-15T01:43:01;67366.70;;;-1.66;100.00
22930;BME280;11630;42.660;23.292;2024-01-15T01:45:28;67399.27;;;-1.33;100.00
22930;BME280;11630;42.660;23.292;2024-01-15T01:47:59;67391.42;;;-1.44;100.00
22930;BME280;11630;42.660;23.292;2024-01-15T01:50:32;67394.35;;;-1.45;100.00
22930;BME280;11630;42.660;23.292;2024-01-15T01:53:04;67394.66;;;-1.41;100.00
22930;BME280;11630;42.660;23.292;2024-01-15T01:55:35;67425.85;;;-1.12;100.00
22930;BME280;11630;42.660;23.292;2024-01-15T01:58:07;67444.68;;;-0.94;100.00
22930;BME280;11630;42.660;23.292;2024-01-15T02:00:38;67451.11;;;-0.91;100.00
22930;BME280;11630;42.660;23.292;2024-01-15T02:03:10;67464.89;;;-0.75;100.00
22930;BME280;11630;42.660;23.292;2024-01-15T02:05:40;67443.07;;;-0.96;100.00
22930;BME280;11630;42.660;23.292;2024-01-15T02:08:17;67404.02;;;-1.36;100.00
22930;BME280;11630;42.660;23.292;2024-01-15T02:10:50;67395.73;;;-1.40;100.00
22930;BME280;11630;42.660;23.292;2024-01-15T02:13:24;67400.55;;;-1.38;100.00
22930;BME280;11630;42.660;23.292;2024-01-15T02:16:10;67410.48;;;-1.30;100.00
22930;BME280;11630;42.660;23.292;2024-01-15T02:18:42;67404.56;;;-1.35;100.00
22930;BME280;11630;42.660;23.292;2024-01-15T02:21:27;67408.10;;;-1.28;100.00
22930;BME280;11630;42.660;23.292;2024-01-15T02:23:51;67430.16;;;-1.08;100.00
22930;BME280;11630;42.660;23.292;2024-01-15T02:26:45;67448.17;;;-0.92;100.00
22930;BME280;11630;42.660;23.292;2024-01-15T02:29:01;67445.76;;;-0.93;100.00
22930;BME280;11630;42.660;23.292;2024-01-15T02:31:34;67484.50;;;-0.58;100.00
22930;BME280;11630;42.660;23.292;2024-01-15T02:34:05;67417.79;;;-1.19;100.00
22930;BME280;11630;42.660;23.292;2024-01-15T02:36:36;67379.02;;;-1.57;100.00
22930;BME280;11630;42.660;23.292;2024-01-15T02:39:06;67390.89;;;-1.44;100.00
22930;BME280;11630;42.660;23.292;2024-01-15T02:41:36;67390.06;;;-1.46;100.00
22930;BME280;11630;42.660;23.292;2024-01-15T02:44:07;67357.84;;;-1.73;100.00
22930;BME280;11630;42.660;23.292;2024-01-15T02:46:38;67375.01;;;-1.60;100.00
22930;BME280;11630;42.660;23.292;2024-01-15T02:49:09;67372.85;;;-1.62;100.00
22930;BME280;11630;42.660;23.292;2024-01-15T02:51:40;67390.06;;;-1.46;100.00
22930;BME280;11630;42.660;23.292;2024-01-15T02:54:11;67379.02;;;-1.57;100.00
22930;BME280;11630;42.660;23.292;2024-01-15T02:56:41;67352.96;;;-1.80;100.00
22930;BME280;11630;42.660;23.292;2024-01-15T02:59:12;67357.88;;;-1.71;100.00
22930;BME280;11630;42.660;23.292;2024-01-15T03:01:43;67368.59;;;-1.63;100.00
22930;BME280;11630;42.660;23.292;2024-01-15T03:04:14;67368.56;;;-1.66;100.00
22930;BME280;11630;42.660;23.292;2024-01-15T03:06:45;67381.50;;;-1.52;100.00
22930;BME280;11630;42.660;23.292;2024-01-15T03:09:16;67385.49;;;-1.52;100.00
22930;BME280;11630;42.660;23.292;2024-01-15T03:11:47;67393.30;;;-1.43;100.00
22930;BME280;11630;42.660;23.292;2024-01-15T03:14:19;67423.73;;;-1.11;100.00
22930;BME280;11630;42.660;23.292;2024-01-15T03:16:49;67447.34;;;-0.94;100.00
22930;BME280;11630;42.660;23.292;2024-01-15T03:19:20;67407.03;;;-1.29;100.00
22930;BME280;11630;42.660;23.292;2024-01-15T03:21:51;67430.16;;;-1.08;100.00
22930;BME280;11630;42.660;23.292;2024-01-15T03:24:22;67436.06;;;-1.02;100.00
22930;BME280;11630;42.660;23.292;2024-01-15T03:26:53;67458.69;;;-0.81;100.00
22930;BME280;11630;42.660;23.292;2024-01-15T03:29:25;67456.80;;;-0.82;100.00
22930;BME280;11630;42.660;23.292;2024-01-15T03:31:56;67437.70;;;-1.01;100.00
22930;BME280;11630;42.660;23.292;2024-01-15T03:34:27;67433.38;;;-1.05;100.00
22930;BME280;11630;42.660;23.292;2024-01-15T03:36:58;67424.22;;;-1.16;100.00
22930;BME280;11630;42.660;23.292;2024-01-15T03:39:27;67437.70;;;-1.01;100.00
22930;BME280;11630;42.660;23.292;2024-01-15T03:41:58;67447.09;;;-0.93;100.00
22930;BME280;11630;42.660;23.292;2024-01-15T03:44:29;67419.92;;;-1.17;100.00
22930;BME280;11630;42.660;23.292;2024-01-15T03:46:58;67445.23;;;-0.94;100.00
22930;BME280;11630;42.660;23.292;2024-01-15T03:49:29;67436.34;;;-1.03;100.00
22930;BME280;11630;42.660;23.292;2024-01-15T03:52:00;67425.59;;;-1.11;100.00
22930;BME280;11630;42.660;23.292;2024-01-15T03:54:31;67422.64;;;-1.15;100.00
22930;BME280;11630;42.660;23.292;2024-01-15T03:57:02;67416.71;;;-1.20;100.00
22930;BME280;11630;42.660;23.292;2024-01-15T03:59:33;67425.07;;;-1.11;100.00
22930;BME280;11630;42.660;23.292;2024-01-15T04:02:04;67434.97;;;-1.06;100.00
22930;BME280;11630;42.660;23.292;2024-01-15T04:04:35;67431.27;;;-1.04;100.00
22930;BME280;11630;42.660;23.292;2024-01-15T04:07:06;67465.11;;;-0.78;100.00
22930;BME280;11630;42.660;23.292;2024-01-15T04:09:40;67477.80;;;-0.63;100.00
22930;BME280;11630;42.660;23.292;2024-01-15T04:12:11;67521.09;;;-0.26;100.00
22930;BME280;11630;42.660;23.292;2024-01-15T04:14:42;67517.05;;;-0.29;100.00
22930;BME280;11630;42.660;23.292;2024-01-15T04:17:12;67512.23;;;-0.33;100.00
22930;BME280;11630;42.660;23.292;2024-01-15T04:19:43;67510.07;;;-0.35;100.00
22930;BME280;11630;42.660;23.292;2024-01-15T04:22:14;67523.23;;;-0.24;100.00
22930;BME280;11630;42.660;23.292;2024-01-15T04:24:45;67516.78;;;-0.30;100.00
22930;BME280;11630;42.660;23.292;2024-01-15T04:27:16;67510.07;;;-0.35;100.00
22930;BME280;11630;42.660;23.292;2024-01-15T04:29:46;67467.25;;;-0.76;100.00
22930;BME280;11630;42.660;23.292;2024-01-15T04:32:18;67467.58;;;-0.72;100.00
22930;BME280;11630;42.660;23.292;2024-01-15T04:34:48;67432.83;;;-1.08;100.00
22930;BME280;11630;42.660;23.292;2024-01-15T04:37:19;67427.18;;;-1.12;100.00
22930;BME280;11630;42.660;23.292;2024-01-15T04:39:50;67410.79;;;-1.26;100.00
22930;BME280;11630;42.660;23.292;2024-01-15T04:42:22;67419.66;;;-1.19;100.00
22930;BME280;11630;42.660;23.292;2024-01-15T04:44:53;67439.58;;;-0.98;100.00
22930;BME280;11630;42.660;23.292;2024-01-15T04:47:24;67422.69;;;-1.10;100.00
22930;BME280;11630;42.660;23.292;2024-01-15T04:49:54;67443.07;;;-0.96;100.00
22930;BME280;11630;42.660;23.292;2024-01-15T04:52:25;67393.58;;;-1.42;100.00
22930;BME280;11630;42.660;23.292;2024-01-15T04:54:56;67386.27;;;-1.52;100.00
22930;BME280;11630;42.660;23.292;2024-01-15T04:57:26;67396.23;;;-1.42;100.00
22930;BME280;11630;42.660;23.292;2024-01-15T04:59:57;67386.33;;;-1.47;100.00
22930;BME280;11630;42.660;23.292;2024-01-15T05:02:28;67409.19;;;-1.27;100.00
22930;BME280;11630;42.660;23.292;2024-01-15T05:05:00;67425.85;;;-1.12;100.00
22930;BME280;11630;42.660;23.292;2024-01-15T05:07:32;67457.88;;;-0.81;100.00
22930;BME280;11630;42.660;23.292;2024-01-15T05:10:03;67471.62;;;-0.67;100.00
22930;BME280;11630;42.660;23.292;2024-01-15T05:12:34;67456.50;;;-0.86;100.00
22930;BME280;11630;42.660;23.292;2024-01-15T05:15:05;67443.07;;;-0.96;100.00
22930;BME280;11630;42.660;23.292;2024-01-15T05:17:37;67450.85;;;-0.90;100.00
22930;BME280;11630;42.660;23.292;2024-01-15T05:20:09;67426.67;;;-1.10;100.00
22930;BME280;11630;42.660;23.292;2024-01-15T05:22:39;67407.00;;;-1.32;100.00
22930;BME280;11630;42.660;23.292;2024-01-15T05:25:10;67408.89;;;-1.29;100.00
22930;BME280;11630;42.660;23.292;2024-01-15T05:27:40;67371.25;;;-1.63;100.00
22930;BME280;11630;42.660;23.292;2024-01-15T05:30:12;67385.27;;;-1.48;100.00
22930;BME280;11630;42.660;23.292;2024-01-15T05:32:43;67411.59;;;-1.26;100.00
22930;BME280;11630;42.660;23.292;2024-01-15T05:35:15;67391.95;;;-1.46;100.00
22930;BME280;11630;42.660;23.292;2024-01-15T05:37:45;67410.28;;;-1.24;100.00
22930;BME280;11630;42.660;23.292;2024-01-15T05:40:15;67394.35;;;-1.45;100.00
22930;BME280;11630;42.660;23.292;2024-01-15T05:42:46;67370.19;;;-1.62;100.00
22930;BME280;11630;42.660;23.292;2024-01-15T05:45:17;67365.65;;;-1.65;100.00
22930;BME280;11630;42.660;23.292;2024-01-15T05:47:48;67386.05;;;-1.49;100.00
22930;BME280;11630;42.660;23.292;2024-01-15T05:50:19;67410.22;;;-1.29;100.00
22930;BME280;11630;42.660;23.292;2024-01-15T05:52:49;67434.41;;;-1.09;100.00
22930;BME280;11630;42.660;23.292;2024-01-15T05:55:19;67457.05;;;-0.83;100.00
22930;BME280;11630;42.660;23.292;2024-01-15T05:57:50;67454.92;;;-0.85;100.00
22930;BME280;11630;42.660;23.292;2024-01-15T06:00:28;67439.03;;;-1.01;100.00
22930;BME280;11630;42.660;23.292;2024-01-15T06:02:58;67458.61;;;-0.86;100.00
22930;BME280;11630;42.660;23.292;2024-01-15T06:05:26;67418.57;;;-1.20;100.00
22930;BME280;11630;42.660;23.292;2024-01-15T06:07:56;67404.09;;;-1.31;100.00
22930;BME280;11630;42.660;23.292;2024-01-15T06:10:27;67647.76;;;0.95;100.00
22930;BME280;11630;42.660;23.292;2024-01-15T06:12:58;67641.50;;;0.86;100.00
22930;BME280;11630;42.660;23.292;2024-01-15T06:15:29;67475.11;;;-0.65;100.00
22930;BME280;11630;42.660;23.292;2024-01-15T06:18:00;67469.98;;;-0.71;100.00
22930;BME280;11630;42.660;23.292;2024-01-15T06:20:31;67483.15;;;-0.60;100.00
22930;BME280;11630;42.660;23.292;2024-01-15T06:23:01;67453.84;;;-0.86;100.00
22930;BME280;11630;42.660;23.292;2024-01-15T06:25:33;67447.41;;;-0.89;100.00
22930;BME280;11630;42.660;23.292;2024-01-15T06:28:04;67448.74;;;-0.89;100.00
22930;BME280;11630;42.660;23.292;2024-01-15T06:30:43;67487.97;;;-0.58;100.00
22930;BME280;11630;42.660;23.292;2024-01-15T06:33:09;67483.72;;;-0.57;100.00
22930;BME280;11630;42.660;23.292;2024-01-15T06:35:39;67493.66;;;-0.49;100.00
22930;BME280;11630;42.660;23.292;2024-01-15T06:38:10;67524.02;;;-0.27;100.00
22930;BME280;11630;42.660;23.292;2024-01-15T06:40:43;67530.02;;;-0.14;100.00
22930;BME280;11630;42.660;23.292;2024-01-15T06:43:17;67504.42;;;-0.39;100.00
22930;BME280;11630;42.660;23.292;2024-01-15T06:45:48;67475.38;;;-0.64;100.00
22930;BME280;11630;42.660;23.292;2024-01-15T06:48:18;67450.33;;;-0.90;100.00
22930;BME280;11630;42.660;23.292;2024-01-15T06:50:53;67469.16;;;-0.73;100.00
22930;BME280;11630;42.660;23.292;2024-01-15T06:53:21;67465.67;;;-0.75;100.00
22930;BME280;11630;42.660;23.292;2024-01-15T06:55:51;67503.64;;;-0.39;100.00
22930;BME280;11630;42.660;23.292;2024-01-15T06:58:22;67544.27;;;-0.02;100.00
22930;BME280;11630;42.660;23.292;2024-01-15T07:00:54;67537.55;;;-0.07;100.00
22930;BME280;11630;42.660;23.292;2024-01-15T07:03:25;67516.27;;;-0.28;100.00
22930;BME280;11630;42.660;23.292;2024-01-15T07:05:56;67485.08;;;-0.55;100.00
22930;BME280;11630;42.660;23.292;2024-01-15T07:08:27;67498.23;;;-0.44;100.00
22930;BME280;11630;42.660;23.292;2024-01-15T07:10:58;67490.98;;;-0.52;100.00
22930;BME280;11630;42.660;23.292;2024-01-15T07:13:29;67519.49;;;-0.25;100.00
22930;BME280;11630;42.660;23.292;2024-01-15T07:16:01;67528.11;;;-0.17;100.00
22930;BME280;11630;42.660;23.292;2024-01-15T07:18:32;67541.05;;;-0.05;100.00
22930;BME280;11630;42.660;23.292;2024-01-15T07:21:07;67561.76;;;0.12;100.00
22930;BME280;11630;42.660;23.292;2024-01-15T07:23:34;67593.83;;;0.43;100.00
22930;BME280;11630;42.660;23.292;2024-01-15T07:26:04;67596.24;;;0.44;100.00
22930;BME280;11630;42.660;23.292;2024-01-15T07:28:35;67611.58;;;0.57;100.00
22930;BME280;11630;42.660;23.292;2024-01-15T07:31:06;67621.28;;;0.66;100.00
22930;BME280;11630;42.660;23.292;2024-01-15T07:33:37;67636.95;;;0.83;100.00
22930;BME280;11630;42.660;23.292;2024-01-15T07:36:08;67624.00;;;0.71;100.00
22930;BME280;11630;42.660;23.292;2024-01-15T07:38:39;67607.53;;;0.52;100.00
22930;BME280;11630;42.660;23.292;2024-01-15T07:41:15;67628.06;;;0.76;100.00
22930;BME280;11630;42.660;23.292;2024-01-15T07:43:41;67634.77;;;0.78;100.00
22930;BME280;11630;42.660;23.292;2024-01-15T07:46:15;67628.33;;;0.75;100.00
22930;BME280;11630;42.660;23.292;2024-01-15T07:48:47;67628.58;;;0.74;100.00
22930;BME280;11630;42.660;23.292;2024-01-15T07:51:18;67628.06;;;0.76;100.00
22930;BME280;11630;42.660;23.292;2024-01-15T07:53:49;67651.48;;;0.96;100.00
22930;BME280;11630;42.660;23.292;2024-01-15T07:56:22;67615.13;;;0.64;100.00
22930;BME280;11630;42.660;23.292;2024-01-15T07:58:54;67638.80;;;0.81;100.00
22930;BME280;11630;42.660;23.292;2024-01-15T08:01:25;67669.30;;;1.13;100.00
22930;BME280;11630;42.660;23.292;2024-01-15T08:03:56;67698.91;;;1.38;100.00
22930;BME280;11630;42.660;23.292;2024-01-15T08:06:26;67707.30;;;1.47;100.00
22930;BME280;11630;42.660;23.292;2024-01-15T08:08:57;67713.50;;;1.53;100.00
22930;BME280;11630;42.660;23.292;2024-01-15T08:11:28;67728.33;;;1.66;100.00
22930;BME280;11630;42.660;23.292;2024-01-15T08:13:59;67734.03;;;1.75;100.00
22930;BME280;11630;42.660;23.292;2024-01-15T08:16:32;67707.03;;;1.48;100.00
22930;BME280;11630;42.660;23.292;2024-01-15T08:19:03;67718.38;;;1.60;100.00
22930;BME280;11630;42.660;23.292;2024-01-15T08:21:36;67738.28;;;1.71;100.00
22930;BME280;11630;42.660;23.292;2024-01-15T08:24:09;67752.91;;;1.92;100.00
22930;BME280;11630;42.660;23.292;2024-01-15T08:26:42;67734.31;;;1.76;100.00
22930;BME280;11630;42.660;23.292;2024-01-15T08:29:14;67760.45;;;1.97;100.00
22930;BME280;11630;42.660;23.292;2024-01-15T08:31:46;67740.47;;;1.76;100.00
22930;BME280;11630;42.660;23.292;2024-01-15T08:34:17;67723.79;;;1.65;100.00
22930;BME280;11630;42.660;23.292;2024-01-15T08:36:47;67735.31;;;1.70;100.00
22930;BME280;11630;42.660;23.292;2024-01-15T08:39:18;67746.11;;;1.80;100.00
22930;BME280;11630;42.660;23.292;2024-01-15T08:41:54;67749.12;;;1.86;100.00
22930;BME280;11630;42.660;23.292;2024-01-15T08:44:20;67746.44;;;1.86;100.00
22930;BME280;11630;42.660;23.292;2024-01-15T08:46:51;67705.95;;;1.47;100.00
22930;BME280;11630;42.660;23.292;2024-01-15T08:49:21;67705.13;;;1.45;100.00
22930;BME280;11630;42.660;23.292;2024-01-15T08:51:52;67708.91;;;1.48;100.00
22930;BME280;11630;42.660;23.292;2024-01-15T08:54:26;67688.98;;;1.32;100.00
22930;BME280;11630;42.660;23.292;2024-01-15T08:57:00;67726.72;;;1.64;100.00
22930;BME280;11630;42.660;23.292;2024-01-15T08:59:30;67762.63;;;2.01;100.00
22930;BME280;11630;42.660;23.292;2024-01-15T09:02:01;67738.06;;;1.77;100.00
22930;BME280;11630;42.660;23.292;2024-01-15T09:04:31;67750.47;;;1.89;100.00
22930;BME280;11630;42.660;23.292;2024-01-15T09:07:02;67783.09;;;2.15;100.00
22930;BME280;11630;42.660;23.292;2024-01-15T09:09:33;67784.21;;;2.21;100.00
22930;BME280;11630;42.660;23.292;2024-01-15T09:12:02;67782.58;;;2.17;100.00
22930;BME280;11630;42.660;23.292;2024-01-15T09:14:32;67809.55;;;2.42;100.00
22930;BME280;11630;42.660;23.292;2024-01-15T09:17:03;67837.90;;;2.67;100.00
22930;BME280;11630;42.660;23.292;2024-01-15T09:19:34;67844.39;;;2.75;100.00
22930;BME280;11630;42.660;23.292;2024-01-15T09:22:05;67847.34;;;2.77;100.00
22930;BME280;11630;42.660;23.292;2024-01-15T09:24:36;67863.27;;;2.90;100.00
22930;BME280;11630;42.660;23.292;2024-01-15T09:27:06;67881.66;;;3.09;100.00
22930;BME280;11630;42.660;23.292;2024-01-15T09:29:38;67891.63;;;3.15;100.00
22930;BME280;11630;42.660;23.292;2024-01-15T09:32:14;67858.16;;;2.87;100.00
22930;BME280;11630;42.660;23.292;2024-01-15T09:34:45;67856.23;;;2.81;100.00
22930;BME280;11630;42.660;23.292;2024-01-15T09:37:16;67869.79;;;2.99;100.00
22930;BME280;11630;42.660;23.292;2024-01-15T09:39:48;67912.41;;;3.33;99.38
22930;BME280;11630;42.660;23.292;2024-01-15T09:42:19;67985.66;;;4.01;91.56
22930;BME280;11630;42.660;23.292;2024-01-15T09:44:50;68028.95;;;4.44;84.45
22930;BME280;11630;42.660;23.292;2024-01-15T09:47:21;68076.30;;;4.88;83.21
22930;BME280;11630;42.660;23.292;2024-01-15T09:49:53;68195.42;;;5.98;77.26
22930;BME280;11630;42.660;23.292;2024-01-15T09:52:27;67960.02;;;3.81;82.43
22930;BME280;11630;42.660;23.292;2024-01-15T09:55:01;68055.73;;;4.69;80.29
22930;BME280;11630;42.660;23.292;2024-01-15T09:57:33;68113.08;;;5.20;76.81
22930;BME280;11630;42.660;23.292;2024-01-15T10:00:03;68158.84;;;5.63;73.52
22930;BME280;11630;42.660;23.292;2024-01-15T10:02:33;68066.81;;;4.78;76.65
22930;BME280;11630;42.660;23.292;2024-01-15T10:05:04;67963.28;;;3.87;79.05
22930;BME280;11630;42.660;23.292;2024-01-15T10:07:37;68021.07;;;4.33;81.04
22930;BME280;11630;42.660;23.292;2024-01-15T10:10:07;68028.69;;;4.45;79.58
22930;BME280;11630;42.660;23.292;2024-01-15T10:12:38;68059.25;;;4.74;79.57
22930;BME280;11630;42.660;23.292;2024-01-15T10:15:12;68091.14;;;4.98;76.44
22930;BME280;11630;42.660;23.292;2024-01-15T10:17:45;68104.16;;;5.13;76.23
22930;BME280;11630;42.660;23.292;2024-01-15T10:20:15;68197.03;;;5.99;70.92
22930;BME280;11630;42.660;23.292;2024-01-15T10:22:46;68218.99;;;6.20;69.60
22930;BME280;11630;42.660;23.292;2024-01-15T10:25:17;68185.41;;;5.90;67.68
22930;BME280;11630;42.660;23.292;2024-01-15T10:27:58;68251.49;;;6.48;67.48
22930;BME280;11630;42.660;23.292;2024-01-15T10:30:21;68193.55;;;6.00;67.67
22930;BME280;11630;42.660;23.292;2024-01-15T10:33:01;68301.89;;;6.91;63.62
22930;BME280;11630;42.660;23.292;2024-01-15T10:35:32;68256.64;;;6.54;63.29
22930;BME280;11630;42.660;23.292;2024-01-15T10:38:03;68264.22;;;6.58;61.82
22930;BME280;11630;42.660;23.292;2024-01-15T10:40:38;68353.41;;;7.41;60.94
22930;BME280;11630;42.660;23.292;2024-01-15T10:43:09;68392.45;;;7.72;59.46
22930;BME280;11630;42.660;23.292;2024-01-15T10:45:40;68446.47;;;8.20;58.08
22930;BME280;11630;42.660;23.292;2024-01-15T10:48:15;68446.74;;;8.24;57.55
22930;BME280;11630;42.660;23.292;2024-01-15T10:50:46;68414.99;;;8.01;57.15
22930;BME280;11630;42.660;23.292;2024-01-15T10:53:18;68295.92;;;6.86;60.47
22930;BME280;11630;42.660;23.292;2024-01-15T10:55:51;68326.55;;;7.15;60.30
22930;BME280;11630;42.660;23.292;2024-01-15T10:58:23;68355.30;;;7.42;59.56
22930;BME280;11630;42.660;23.292;2024-01-15T11:00:55;68361.58;;;7.54;60.52
22930;BME280;11630;42.660;23.292;2024-01-15T11:03:26;68345.55;;;7.33;60.42
22930;BME280;11630;42.660;23.292;2024-01-15T11:05:57;68419.03;;;7.96;58.90
22930;BME280;11630;42.660;23.292;2024-01-15T11:08:32;68335.22;;;7.23;59.37
22930;BME280;11630;42.660;23.292;2024-01-15T11:10:59;68288.59;;;6.78;60.82
22930;BME280;11630;42.660;23.292;2024-01-15T11:16:12;68284.28;;;6.79;61.38
22930;BME280;11630;42.660;23.292;2024-01-15T11:19:01;68221.67;;;6.18;62.89
22930;BME280;11630;42.660;23.292;2024-01-15T11:21:30;68281.83;;;6.73;62.44
22930;BME280;11630;42.660;23.292;2024-01-15T11:24:01;68343.07;;;7.27;60.56
22930;BME280;11630;42.660;23.292;2024-01-15T11:26:43;68372.11;;;7.55;59.62
22930;BME280;11630;42.660;23.292;2024-01-15T11:34:13;68356.38;;;7.43;59.62
22930;BME280;11630;42.660;23.292;2024-01-15T11:42:03;68381.34;;;7.65;66.32
22930;BME280;11630;42.660;23.292;2024-01-15T11:44:33;68319.00;;;7.13;66.35
22930;BME280;11630;42.660;23.292;2024-01-15T11:47:05;68270.20;;;6.66;66.20
22930;BME280;11630;42.660;23.292;2024-01-15T11:52:18;68224.38;;;6.20;67.13
22930;BME280;11630;42.660;23.292;2024-01-15T11:54:48;68237.39;;;6.35;67.22
22930;BME280;11630;42.660;23.292;2024-01-15T11:57:18;68217.08;;;6.17;66.98
22930;BME280;11630;42.660;23.292;2024-01-15T11:59:49;68191.36;;;5.93;68.27
22930;BME280;11630;42.660;23.292;2024-01-15T12:02:19;68211.41;;;6.13;67.89
22930;BME280;11630;42.660;23.292;2024-01-15T12:04:50;68185.67;;;5.91;68.60
22930;BME280;11630;42.660;23.292;2024-01-15T12:07:21;68207.30;;;6.04;69.04
22930;BME280;11630;42.660;23.292;2024-01-15T12:09:54;68188.37;;;5.91;69.78
22930;BME280;11630;42.660;23.292;2024-01-15T12:12:29;68204.61;;;6.04;69.37
22930;BME280;11630;42.660;23.292;2024-01-15T12:14:57;68161.22;;;5.59;71.93
22930;BME280;11630;42.660;23.292;2024-01-15T12:17:29;68159.34;;;5.58;72.88
22930;BME280;11630;42.660;23.292;2024-01-15T12:20:01;68163.96;;;5.64;73.92
22930;BME280;11630;42.660;23.292;2024-01-15T12:22:32;68130.42;;;5.40;75.03
22930;BME280;11630;42.660;23.292;2024-01-15T12:25:02;68140.16;;;5.47;74.47
22930;BME280;11630;42.660;23.292;2024-01-15T12:27:32;68147.44;;;5.50;74.88
22930;BME280;11630;42.660;23.292;2024-01-15T12:30:03;68146.66;;;5.53;74.40
22930;BME280;11630;42.660;23.292;2024-01-15T12:32:34;68173.44;;;5.74;73.08
22930;BME280;11630;42.660;23.292;2024-01-15T12:35:06;68171.33;;;5.77;71.90
22930;BME280;11630;42.660;23.292;2024-01-15T12:37:38;68180.50;;;5.80;71.89
22930;BME280;11630;42.660;23.292;2024-01-15T12:40:10;68189.97;;;5.88;72.79
22930;BME280;11630;42.660;23.292;2024-01-15T12:42:41;68192.16;;;5.95;73.97
22930;BME280;11630;42.660;23.292;2024-01-15T12:45:12;68172.41;;;5.78;74.46
22930;BME280;11630;42.660;23.292;2024-01-15T12:47:43;68179.70;;;5.83;74.60
22930;BME280;11630;42.660;23.292;2024-01-15T12:50:15;68177.52;;;5.79;73.41
22930;BME280;11630;42.660;23.292;2024-01-15T12:52:46;68152.89;;;5.60;75.26
22930;BME280;11630;42.660;23.292;2024-01-15T12:55:16;68170.20;;;5.71;74.99
22930;BME280;11630;42.660;23.292;2024-01-15T12:57:47;68170.74;;;5.74;74.34
22930;BME280;11630;42.660;23.292;2024-01-15T13:00:18;68180.50;;;5.80;75.88
22930;BME280;11630;42.660;23.292;2024-01-15T13:02:50;68190.77;;;5.85;74.88
22930;BME280;11630;42.660;23.292;2024-01-15T13:05:21;68195.68;;;5.97;74.67
22930;BME280;11630;42.660;23.292;2024-01-15T13:07:53;68173.48;;;5.79;76.14
22930;BME280;11630;42.660;23.292;2024-01-15T13:10:23;68132.84;;;5.39;76.27
22930;BME280;11630;42.660;23.292;2024-01-15T13:12:54;68177.80;;;5.78;75.88
22930;BME280;11630;42.660;23.292;2024-01-15T13:15:26;68177.26;;;5.80;75.44
22930;BME280;11630;42.660;23.292;2024-01-15T13:17:57;68165.85;;;5.67;77.01
22930;BME280;11630;42.660;23.292;2024-01-15T13:20:27;68164.25;;;5.68;75.74
22930;BME280;11630;42.660;23.292;2024-01-15T13:22:58;68175.37;;;5.77;75.11
22930;BME280;11630;42.660;23.292;2024-01-15T13:25:29;68176.73;;;5.82;76.15
22930;BME280;11630;42.660;23.292;2024-01-15T13:28:00;68198.36;;;5.94;75.44